Time;durP1;ratioP1;P1;durP2;ratioP2;P2;SDS_P1;SDS_P2;PMS_P1;PMS_P2;Temp;Humidity;BMP_temperature;BMP_pressure;BME280_temperature;BME280_humidity;BME280_pressure;Samples;Min_cycle;Max_cycle;Signal;HPM_P1;HPM_P2
2024/01/22 00:02:26;;;;;;;199.10;77.28;;;;;;;8.39;nan;99188.22;5049779;28;20044;-69
2024/01/22 00:04:55;;;;;;;180.15;78.00;;;;;;;8.32;nan;99186.44;5053793;28;20363;-69
2024/01/22 00:07:25;;;;;;;190.45;78.75;;;;;;;8.18;nan;99184.41;5056066;28;20156;-70
2024/01/22 00:09:54;;;;;;;192.32;78.63;;;;;;;8.23;nan;99188.19;5057103;28;20106;-70
2024/01/22 00:12:23;;;;;;;193.93;78.13;;;;;;;8.41;nan;99186.22;5046433;28;20071;-69
2024/01/22 00:14:52;;;;;;;214.38;87.75;;;;;;;8.41;nan;99190.69;5051612;28;20152;-69
2024/01/22 00:17:22;;;;;;;217.77;85.90;;;;;;;8.33;nan;99194.16;5072371;28;20052;-69
2024/01/22 00:19:51;;;;;;;223.38;91.05;;;;;;;8.08;nan;99205.69;5065046;28;20247;-69
2024/01/22 00:22:21;;;;;;;219.93;89.78;;;;;;;8.33;nan;99204.72;5065872;28;20079;-69
2024/01/22 00:24:50;;;;;;;241.07;93.68;;;;;;;8.23;nan;99196.09;5066272;28;20047;-69
2024/01/22 00:27:19;;;;;;;240.52;91.65;;;;;;;8.02;nan;99201.06;5062501;28;20124;-70
2024/01/22 00:29:49;;;;;;;244.30;93.22;;;;;;;8.09;nan;99210.81;5066093;28;20558;-69
2024/01/22 00:32:18;;;;;;;241.90;96.65;;;;;;;8.02;nan;99212.44;5064925;28;20052;-72
2024/01/22 00:34:47;;;;;;;241.90;94.95;;;;;;;8.07;nan;99214.56;5065892;28;20580;-70
2024/01/22 00:37:16;;;;;;;246.93;94.80;;;;;;;8.03;nan;99218.53;5065458;28;20076;-69
2024/01/22 00:39:46;;;;;;;256.60;94.32;;;;;;;8.16;nan;99223.31;5060783;28;20531;-69
2024/01/22 00:42:15;;;;;;;251.55;97.22;;;;;;;7.92;nan;99222.31;5064919;28;20054;-69
2024/01/22 00:44:45;;;;;;;246.90;95.07;;;;;;;8.04;nan;99234.22;5065456;28;20040;-68
2024/01/22 00:47:14;;;;;;;257.13;94.93;;;;;;;7.98;nan;99239.28;5065011;28;20410;-69
2024/01/22 00:49:43;;;;;;;252.52;89.80;;;;;;;8.05;nan;99227.13;5063973;28;20048;-69
2024/01/22 00:52:13;;;;;;;251.25;96.13;;;;;;;7.94;nan;99225.63;5045505;28;20044;-69
2024/01/22 00:54:43;;;;;;;245.45;91.78;;;;;;;8.12;nan;99228.94;5046361;28;20070;-68
2024/01/22 00:57:12;;;;;;;234.40;87.28;;;;;;;8.26;nan;99238.00;5057696;28;20415;-69
2024/01/22 00:59:41;;;;;;;247.30;90.28;;;;;;;7.94;nan;99233.53;5046763;28;20053;-69
2024/01/22 01:02:10;;;;;;;253.77;89.30;;;;;;;7.98;nan;99244.56;5064308;28;20159;-69
2024/01/22 01:04:41;;;;;;;252.38;86.13;;;;;;;7.89;nan;99242.91;5060401;28;20040;-68
2024/01/22 01:07:12;;;;;;;240.32;82.97;;;;;;;7.77;nan;99245.03;5051888;28;20082;-69
2024/01/22 01:09:41;;;;;;;251.70;83.63;;;;;;;7.90;nan;99250.66;5050801;28;20399;-68
2024/01/22 01:12:11;;;;;;;238.18;83.22;;;;;;;7.90;nan;99247.19;5049779;28;20045;-68
2024/01/22 01:14:40;;;;;;;238.52;84.57;;;;;;;7.90;nan;99255.94;5048121;28;20052;-71
2024/01/22 01:17:09;;;;;;;240.07;82.60;;;;;;;8.03;nan;99244.91;5051701;28;20047;-68
2024/01/22 01:19:39;;;;;;;236.90;81.03;;;;;;;7.68;nan;99256.53;5064182;28;20133;-71
2024/01/22 01:22:09;;;;;;;232.35;79.32;;;;;;;7.63;nan;99257.03;5058236;28;20536;-69
2024/01/22 01:24:39;;;;;;;224.93;77.28;;;;;;;7.79;nan;99250.94;5063140;28;20053;-71
2024/01/22 01:27:08;;;;;;;229.27;76.15;;;;;;;7.86;nan;99261.69;5062615;28;20166;-71
2024/01/22 01:29:39;;;;;;;219.68;71.65;;;;;;;7.82;nan;99252.47;5064125;28;20048;-69
2024/01/22 01:32:09;;;;;;;218.80;70.53;;;;;;;7.71;nan;99258.84;5064646;28;20058;-68
2024/01/22 01:34:38;;;;;;;208.82;70.45;;;;;;;7.79;nan;99269.41;5055331;28;20536;-69
2024/01/22 01:37:07;;;;;;;196.07;66.80;;;;;;;7.91;nan;99262.03;5050967;28;20191;-70
2024/01/22 01:39:36;;;;;;;180.95;61.00;;;;;;;7.66;nan;99261.13;5065936;28;20121;-69
2024/01/22 01:42:06;;;;;;;190.73;58.80;;;;;;;7.80;nan;99278.97;5067270;28;20481;-70
2024/01/22 01:44:38;;;;;;;180.68;59.92;;;;;;;7.85;nan;99278.50;5062403;28;20041;-70
2024/01/22 01:47:08;;;;;;;184.98;59.33;;;;;;;7.91;nan;99283.97;5059104;28;20052;-70
2024/01/22 01:49:37;;;;;;;186.65;58.00;;;;;;;7.88;nan;99281.63;5053346;28;20072;-70
2024/01/22 01:52:07;;;;;;;189.93;60.15;;;;;;;7.87;nan;99285.28;5055964;28;20823;-70
2024/01/22 01:54:37;;;;;;;185.95;62.05;;;;;;;7.83;nan;99291.84;5053011;28;20122;-70
2024/01/22 01:57:07;;;;;;;188.00;60.22;;;;;;;7.97;nan;99291.22;5061554;28;20052;-70
2024/01/22 01:59:37;;;;;;;175.02;61.40;;;;;;;7.66;nan;99284.84;5064759;28;20051;-70
2024/01/22 02:02:06;;;;;;;192.32;59.97;;;;;;;7.90;nan;99292.84;5066615;28;20080;-70
2024/01/22 02:04:36;;;;;;;191.45;63.80;;;;;;;7.70;nan;99291.47;5065068;28;20059;-70
2024/01/22 02:07:06;;;;;;;170.27;58.38;;;;;;;7.77;nan;99295.13;5058409;28;20045;-69
2024/01/22 02:09:49;;;;;;;170.38;57.35;;;;;;;7.76;nan;99300.53;5048703;28;20040;-69
2024/01/22 02:12:19;;;;;;;181.50;56.13;;;;;;;7.97;nan;99306.22;5044480;28;20060;-69
2024/01/22 02:14:48;;;;;;;163.43;55.28;;;;;;;7.93;nan;99310.97;5044604;28;20049;-69
2024/01/22 02:17:18;;;;;;;149.05;51.88;;;;;;;7.84;nan;99311.13;5058579;28;20076;-69
2024/01/22 02:19:47;;;;;;;152.13;52.50;;;;;;;7.84;nan;99313.75;5062895;28;20032;-69
2024/01/22 02:22:16;;;;;;;152.45;49.45;;;;;;;7.86;nan;99315.25;5044381;28;20537;-69
2024/01/22 02:24:45;;;;;;;146.98;50.10;;;;;;;7.76;nan;99313.72;5045536;28;20435;-69
2024/01/22 02:27:16;;;;;;;129.13;46.42;;;;;;;7.52;nan;99320.53;5047607;28;20079;-69
2024/01/22 02:29:46;;;;;;;130.43;46.42;;;;;;;7.49;nan;99314.78;5046667;28;20049;-69
2024/01/22 02:32:15;;;;;;;139.57;47.85;;;;;;;7.74;nan;99321.81;5055266;28;20045;-69
2024/01/22 02:34:44;;;;;;;131.98;46.97;;;;;;;7.79;nan;99327.41;5068477;28;20047;-69
2024/01/22 02:37:15;;;;;;;127.18;45.60;;;;;;;7.62;nan;99330.97;5065960;28;20044;-69
2024/01/22 02:39:44;;;;;;;125.82;43.63;;;;;;;7.55;nan;99341.34;5057650;28;20049;-69
2024/01/22 02:42:14;;;;;;;130.90;43.47;;;;;;;7.52;nan;99341.63;5061019;28;20131;-69
2024/01/22 02:44:43;;;;;;;114.53;41.70;;;;;;;7.75;nan;99344.53;5066919;28;20052;-70
2024/01/22 02:47:13;;;;;;;110.47;40.22;;;;;;;7.73;nan;99343.06;5065932;28;20410;-73
2024/01/22 02:49:42;;;;;;;113.38;41.45;;;;;;;7.82;nan;99347.38;5067944;28;20032;-70
2024/01/22 02:52:11;;;;;;;105.15;38.50;;;;;;;7.70;nan;99357.38;5064207;28;20713;-70
2024/01/22 02:54:40;;;;;;;106.38;39.25;;;;;;;7.68;nan;99359.34;5066464;28;20101;-70
2024/01/22 02:57:11;;;;;;;113.50;40.50;;;;;;;7.52;nan;99364.56;5062187;28;20048;-70
2024/01/22 02:59:43;;;;;;;111.82;41.20;;;;;;;7.46;nan;99363.34;5066385;28;20470;-70
2024/01/22 03:02:13;;;;;;;118.88;42.00;;;;;;;7.44;nan;99373.22;5063495;28;20040;-68
2024/01/22 03:04:43;;;;;;;117.90;39.78;;;;;;;7.61;nan;99376.78;5064788;28;20553;-70
2024/01/22 03:07:13;;;;;;;106.03;40.15;;;;;;;7.87;nan;99382.84;5057914;28;20075;-70
2024/01/22 03:09:42;;;;;;;106.85;40.30;;;;;;;7.82;nan;99379.84;5066501;28;20043;-70
2024/01/22 03:12:12;;;;;;;101.85;37.67;;;;;;;7.42;nan;99379.63;5066404;28;20715;-70
2024/01/22 03:14:41;;;;;;;105.88;40.08;;;;;;;7.44;nan;99378.47;5064137;28;20048;-69
2024/01/22 03:17:11;;;;;;;99.40;39.30;;;;;;;7.50;nan;99387.59;5065677;28;20136;-70
2024/01/22 03:19:41;;;;;;;103.70;40.13;;;;;;;7.66;nan;99390.28;5079216;28;20134;-70
2024/01/22 03:22:10;;;;;;;100.85;37.75;;;;;;;7.44;nan;99406.63;5058215;28;20486;-70
2024/01/22 03:24:44;;;;;;;116.00;41.83;;;;;;;7.29;nan;99405.56;5057304;28;20055;-70
2024/01/22 03:27:16;;;;;;;111.75;40.53;;;;;;;7.42;nan;99408.63;5062352;27;20052;-70
2024/01/22 03:29:46;;;;;;;116.10;42.63;;;;;;;7.62;nan;99415.31;5052526;28;20040;-70
2024/01/22 03:32:16;;;;;;;115.18;42.63;;;;;;;7.50;nan;99427.13;5054935;28;20053;-70
2024/01/22 03:34:45;;;;;;;105.45;41.15;;;;;;;7.67;nan;99419.16;5073099;28;20071;-70
2024/01/22 03:37:15;;;;;;;110.70;40.58;;;;;;;7.67;nan;99429.69;5069742;28;20054;-69
2024/01/22 03:39:44;;;;;;;114.38;42.20;;;;;;;7.59;nan;99436.72;5070267;28;20048;-69
2024/01/22 03:42:13;;;;;;;105.13;40.97;;;;;;;7.45;nan;99437.28;5064956;28;20530;-70
2024/01/22 03:44:43;;;;;;;109.20;40.45;;;;;;;7.68;nan;99441.06;5065757;28;20048;-70
2024/01/22 03:47:12;;;;;;;110.63;39.42;;;;;;;7.55;nan;99446.75;5065719;28;20772;-69
2024/01/22 03:49:42;;;;;;;111.05;40.55;;;;;;;7.56;nan;99452.88;5058661;28;20048;-69
2024/01/22 03:52:12;;;;;;;104.22;38.53;;;;;;;7.65;nan;99465.13;5069122;28;20056;-70
2024/01/22 03:54:41;;;;;;;96.10;36.70;;;;;;;7.37;nan;99453.06;5059454;28;20614;-69
2024/01/22 03:57:11;;;;;;;96.13;37.38;;;;;;;7.65;nan;99441.41;5064717;28;20044;-70
2024/01/22 03:59:42;;;;;;;96.43;39.17;;;;;;;7.63;nan;99454.72;5046166;28;20153;-69
2024/01/22 04:02:12;;;;;;;97.50;37.75;;;;;;;7.69;nan;99458.56;5062905;28;20056;-68
2024/01/22 04:04:42;;;;;;;98.00;38.15;;;;;;;7.43;nan;99455.91;5062564;28;20158;-69
2024/01/22 04:07:12;;;;;;;99.70;38.17;;;;;;;7.47;nan;99448.53;5061013;28;20052;-67
2024/01/22 04:09:41;;;;;;;99.20;38.60;;;;;;;7.72;nan;99460.88;5064224;28;20056;-68
2024/01/22 04:12:11;;;;;;;109.88;41.70;;;;;;;7.86;nan;99464.75;5060636;28;20033;-68
2024/01/22 04:14:41;;;;;;;119.53;48.10;;;;;;;8.29;nan;99467.28;5063623;28;20692;-70
2024/01/22 04:17:10;;;;;;;100.43;40.67;;;;;;;8.06;nan;99466.16;5063409;28;20163;-69
2024/01/22 04:19:42;;;;;;;102.80;39.42;;;;;;;8.06;nan;99468.78;5055843;28;20113;-69
2024/01/22 04:22:12;;;;;;;118.13;42.72;;;;;;;8.17;nan;99479.06;5064378;28;20056;-70
2024/01/22 04:24:41;;;;;;;106.22;41.10;;;;;;;8.44;nan;99464.88;5051043;28;20060;-69
2024/01/22 04:27:11;;;;;;;106.75;40.88;;;;;;;8.26;nan;99464.09;5061137;28;20044;-69
2024/01/22 04:29:40;;;;;;;95.85;36.17;;;;;;;8.14;nan;99474.94;5052540;28;20048;-69
2024/01/22 04:32:10;;;;;;;91.47;38.15;;;;;;;8.26;nan;99475.50;5061290;28;20496;-68
2024/01/22 04:34:39;;;;;;;87.20;35.70;;;;;;;8.14;nan;99474.94;5061577;28;20658;-68
2024/01/22 04:37:08;;;;;;;91.22;34.70;;;;;;;8.31;nan;99473.25;5063665;28;20079;-68
2024/01/22 04:39:40;;;;;;;89.40;36.47;;;;;;;8.24;nan;99474.81;5062888;28;20055;-68
2024/01/22 04:42:10;;;;;;;94.30;34.78;;;;;;;8.46;nan;99478.72;5064454;28;20135;-68
2024/01/22 04:44:39;;;;;;;91.78;35.45;;;;;;;8.53;nan;99483.22;5049608;28;20123;-67
2024/01/22 04:47:09;;;;;;;87.03;36.22;;;;;;;8.53;nan;99472.66;5047200;28;20072;-68
2024/01/22 04:49:38;;;;;;;90.43;35.83;;;;;;;8.32;nan;99482.00;5045745;28;20086;-68
2024/01/22 04:52:07;;;;;;;85.70;36.53;;;;;;;8.43;nan;99494.88;5059784;28;20397;-68
2024/01/22 04:54:36;;;;;;;88.55;36.63;;;;;;;8.34;nan;99477.34;5065717;28;20055;-69
2024/01/22 04:57:06;;;;;;;91.38;37.17;;;;;;;8.49;nan;99488.97;5063492;28;20555;-70
2024/01/22 04:59:35;;;;;;;100.55;38.15;;;;;;;8.58;nan;99490.66;5045572;28;20045;-70
2024/01/22 05:02:05;;;;;;;97.47;37.63;;;;;;;8.62;nan;99492.00;5051570;28;20185;-70
2024/01/22 05:04:34;;;;;;;95.25;38.53;;;;;;;8.57;nan;99495.09;5049971;28;20476;-70
2024/01/22 05:07:03;;;;;;;102.65;39.95;;;;;;;8.41;nan;99500.31;5046920;28;20056;-69
2024/01/22 05:09:32;;;;;;;99.03;36.95;;;;;;;8.61;nan;99514.09;5063733;28;20057;-69
2024/01/22 05:12:02;;;;;;;96.53;39.03;;;;;;;8.63;nan;99517.38;5047892;28;20505;-70
2024/01/22 05:14:31;;;;;;;94.70;37.72;;;;;;;8.93;nan;99516.84;5047226;28;20130;-70
2024/01/22 05:17:00;;;;;;;106.32;40.13;;;;;;;8.90;nan;99506.56;5064416;28;20547;-72
2024/01/22 05:19:29;;;;;;;102.53;41.13;;;;;;;8.85;nan;99505.41;5047724;28;20045;-70
2024/01/22 05:21:59;;;;;;;109.07;40.83;;;;;;;8.87;nan;99504.25;5060587;28;20091;-70
2024/01/22 05:24:28;;;;;;;99.50;39.70;;;;;;;8.83;nan;99505.56;5059136;28;20044;-70
2024/01/22 05:26:58;;;;;;;95.82;38.97;;;;;;;9.02;nan;99507.94;5052375;28;20080;-70
2024/01/22 05:29:27;;;;;;;102.47;39.17;;;;;;;8.97;nan;99499.66;5060074;28;20194;-70
2024/01/22 05:31:56;;;;;;;102.53;40.63;;;;;;;9.09;nan;99496.69;5062853;28;20138;-70
2024/01/22 05:34:26;;;;;;;105.43;41.03;;;;;;;8.95;nan;99490.22;5064447;28;20060;-69
2024/01/22 05:36:55;;;;;;;110.07;44.72;;;;;;;9.20;nan;99497.22;5050590;28;20118;-69
2024/01/22 05:39:26;;;;;;;95.57;40.00;;;;;;;9.09;nan;99499.34;5074143;28;20044;-68
2024/01/22 05:41:56;;;;;;;112.18;42.92;;;;;;;9.14;nan;99497.03;5066919;28;20060;-72
2024/01/22 05:44:26;;;;;;;110.07;41.30;;;;;;;9.02;nan;99500.00;5062509;28;20475;-67
2024/01/22 05:46:55;;;;;;;102.28;40.60;;;;;;;9.16;nan;99497.72;5063097;28;20719;-69
2024/01/22 05:49:25;;;;;;;98.70;39.35;;;;;;;9.29;nan;99498.06;5065101;28;20102;-68
2024/01/22 05:51:57;;;;;;;119.60;57.65;;;;;;;9.29;nan;99490.91;5061133;28;20059;-68
2024/01/22 05:54:26;;;;;;;101.78;41.03;;;;;;;9.44;nan;99489.28;5059792;28;20066;-68
2024/01/22 05:56:56;;;;;;;95.95;37.28;;;;;;;9.63;nan;99492.56;5060290;28;20048;-67
2024/01/22 05:59:25;;;;;;;96.22;39.25;;;;;;;9.89;nan;99501.13;5059820;28;20052;-68
2024/01/22 06:01:55;;;;;;;98.00;40.13;;;;;;;9.63;nan;99490.75;5068654;28;20049;-68
2024/01/22 06:04:26;;;;;;;99.05;39.22;;;;;;;9.65;nan;99493.22;5065705;28;20131;-67
2024/01/22 06:06:55;;;;;;;98.65;38.35;;;;;;;9.51;nan;99496.56;5067534;28;20551;-65
2024/01/22 06:09:27;;;;;;;94.43;44.17;;;;;;;9.82;nan;99486.94;5065492;28;20052;-65
2024/01/22 06:11:57;;;;;;;100.85;38.28;;;;;;;10.07;nan;99485.03;5067304;28;20051;-65
2024/01/22 06:14:26;;;;;;;93.70;38.60;;;;;;;10.40;nan;99489.25;5067095;28;20391;-66
2024/01/22 06:16:55;;;;;;;87.93;36.10;;;;;;;10.30;nan;99478.06;5066289;28;20056;-67
2024/01/22 06:19:25;;;;;;;82.30;35.72;;;;;;;10.08;nan;99486.72;5065484;28;20557;-65
2024/01/22 06:21:54;;;;;;;91.88;37.60;;;;;;;10.32;nan;99492.75;5067489;28;20063;-67
2024/01/22 06:24:24;;;;;;;94.30;38.35;;;;;;;10.32;nan;99484.81;5064929;28;20052;-67
2024/01/22 06:26:53;;;;;;;94.82;37.67;;;;;;;10.20;nan;99483.53;5069529;28;20052;-63
2024/01/22 06:29:23;;;;;;;83.85;38.42;;;;;;;10.62;nan;99467.28;5067330;28;20135;-64
2024/01/22 06:31:52;;;;;;;99.82;38.75;;;;;;;10.56;nan;99478.59;5065607;28;20047;-65
2024/01/22 06:34:21;;;;;;;89.68;38.88;;;;;;;10.79;nan;99481.28;5067044;28;20158;-64
2024/01/22 06:36:51;;;;;;;93.20;38.00;;;;;;;10.62;nan;99471.78;5064240;28;20037;-68
2024/01/22 06:39:20;;;;;;;88.65;38.75;;;;;;;10.08;nan;99466.38;5066767;28;20142;-68
2024/01/22 06:41:50;;;;;;;132.05;66.78;;;;;;;10.33;nan;99473.25;5046760;28;20057;-69
2024/01/22 06:44:19;;;;;;;329.00;193.10;;;;;;;10.39;nan;99471.72;5047599;28;20057;-67
2024/01/22 06:46:48;;;;;;;110.20;45.28;;;;;;;10.49;nan;99472.31;5049254;28;20064;-66
2024/01/22 06:49:18;;;;;;;106.68;42.47;;;;;;;10.67;nan;99466.78;5076258;28;20048;-69
2024/01/22 06:51:47;;;;;;;101.25;43.85;;;;;;;10.58;nan;99458.03;5062987;28;20045;-67
2024/01/22 06:54:19;;;;;;;97.93;41.53;;;;;;;10.55;nan;99460.22;5070075;28;20549;-65
2024/01/22 06:56:51;;;;;;;100.68;42.42;;;;;;;10.36;nan;99466.75;5069267;28;20058;-66
2024/01/22 06:59:20;;;;;;;96.60;42.03;;;;;;;10.32;nan;99462.81;5069766;28;20130;-66
2024/01/22 07:01:52;;;;;;;116.78;45.72;;;;;;;10.93;nan;99454.00;5074858;28;20055;-66
2024/01/22 07:04:21;;;;;;;131.57;50.83;;;;;;;10.71;nan;99442.41;5070125;28;20154;-67
2024/01/22 07:06:52;;;;;;;124.93;50.50;;;;;;;10.63;nan;99433.69;5076762;28;20056;-66
2024/01/22 07:09:21;;;;;;;113.20;49.28;;;;;;;10.67;nan;99433.16;5069657;28;20131;-66
2024/01/22 07:11:50;;;;;;;113.53;47.10;;;;;;;11.41;nan;99428.97;5075535;28;20383;-67
2024/01/22 07:14:20;;;;;;;128.70;54.80;;;;;;;11.50;nan;99427.06;5072984;28;20712;-66
2024/01/22 07:16:49;;;;;;;130.88;53.83;;;;;;;11.22;nan;99406.44;5076782;28;20051;-66
2024/01/22 07:19:18;;;;;;;124.07;50.55;;;;;;;11.56;nan;99405.09;5072247;28;20400;-68
2024/01/22 07:21:48;;;;;;;133.13;54.60;;;;;;;11.36;nan;99403.97;5075588;28;20037;-66
2024/01/22 07:24:17;;;;;;;136.82;57.22;;;;;;;11.23;nan;99392.16;5073886;28;20167;-67
2024/01/22 07:26:47;;;;;;;133.05;57.28;;;;;;;11.02;nan;99393.84;5076366;28;20044;-66
2024/01/22 07:29:16;;;;;;;143.73;59.65;;;;;;;11.27;nan;99387.31;5077528;28;20126;-67
2024/01/22 07:31:45;;;;;;;140.23;59.15;;;;;;;10.70;nan;99381.66;5073693;28;20467;-68
2024/01/22 07:34:14;;;;;;;153.98;61.30;;;;;;;10.87;nan;99388.50;5074062;28;20059;-67
2024/01/22 07:36:44;;;;;;;151.57;62.15;;;;;;;10.97;nan;99382.97;5070624;28;20061;-67
2024/01/22 07:39:13;;;;;;;148.07;58.83;;;;;;;11.19;nan;99367.03;5074334;28;20049;-68
2024/01/22 07:41:42;;;;;;;142.80;58.88;;;;;;;11.33;nan;99370.69;5063091;28;20048;-69
2024/01/22 07:44:11;;;;;;;125.68;51.63;;;;;;;11.30;nan;99368.41;5073375;28;20082;-66
2024/01/22 07:46:41;;;;;;;116.38;49.85;;;;;;;11.45;nan;99369.25;5072060;28;20098;-64
2024/01/22 07:49:10;;;;;;;136.02;54.03;;;;;;;11.70;nan;99367.97;5066234;28;20361;-66
2024/01/22 07:51:40;;;;;;;135.40;57.20;;;;;;;11.59;nan;99364.97;5068992;28;20055;-65
2024/01/22 07:54:09;;;;;;;148.77;58.90;;;;;;;12.09;nan;99353.59;5065844;28;20083;-67
2024/01/22 07:56:39;;;;;;;152.85;59.55;;;;;;;12.13;nan;99352.19;5064605;28;20148;-67
2024/01/22 07:59:08;;;;;;;144.27;61.13;;;;;;;11.86;nan;99344.94;5065560;28;20051;-68
2024/01/22 08:01:37;;;;;;;135.80;60.13;;;;;;;11.94;nan;99340.34;5072027;28;20055;-67
2024/01/22 08:04:06;;;;;;;144.27;59.72;;;;;;;11.95;nan;99351.81;5072357;28;20083;-67
2024/01/22 08:06:36;;;;;;;140.02;58.15;;;;;;;11.70;nan;99360.00;5070150;28;20053;-67
2024/01/22 08:09:05;;;;;;;143.05;58.33;;;;;;;11.38;nan;99363.00;5050980;28;20500;-65
2024/01/22 08:11:35;;;;;;;141.27;59.40;;;;;;;11.59;nan;99343.75;5062039;28;20044;-66
2024/01/22 08:14:05;;;;;;;147.60;61.08;;;;;;;11.50;nan;99335.06;5066451;28;20060;-66
2024/01/22 08:16:35;;;;;;;146.43;60.97;;;;;;;11.58;nan;99331.47;5062883;28;20048;-67
2024/01/22 08:19:04;;;;;;;140.35;62.53;;;;;;;11.71;nan;99334.31;5058686;28;20059;-66
2024/01/22 08:21:33;;;;;;;142.50;59.10;;;;;;;11.84;nan;99329.19;5067068;28;20139;-66
2024/01/22 08:24:03;;;;;;;146.20;62.05;;;;;;;11.68;nan;99332.03;5062258;28;20058;-66
2024/01/22 08:26:32;;;;;;;148.55;62.28;;;;;;;11.83;nan;99318.75;5056673;28;20157;-68
2024/01/22 08:29:05;;;;;;;156.67;63.10;;;;;;;11.84;nan;99323.06;5060521;28;20208;-67
2024/01/22 08:31:34;;;;;;;148.43;63.33;;;;;;;11.97;nan;99309.94;5065751;28;20051;-67
2024/01/22 08:34:05;;;;;;;151.63;62.17;;;;;;;12.17;nan;99316.28;5064187;28;20055;-66
2024/01/22 08:36:35;;;;;;;152.52;62.25;;;;;;;11.90;nan;99315.19;5078997;28;20036;-67
2024/01/22 08:39:04;;;;;;;150.65;63.50;;;;;;;12.19;nan;99303.66;5053431;28;20049;-66
2024/01/22 08:41:33;;;;;;;145.32;62.45;;;;;;;12.36;nan;99302.41;5045721;28;20052;-66
2024/01/22 08:44:05;;;;;;;153.35;65.95;;;;;;;12.77;nan;99309.75;5045333;28;20053;-67
2024/01/22 08:46:35;;;;;;;153.88;63.05;;;;;;;12.67;nan;99304.75;5056589;28;20048;-67
2024/01/22 08:49:06;;;;;;;146.80;65.00;;;;;;;12.41;nan;99307.16;5063961;28;20483;-67
2024/01/22 08:51:35;;;;;;;156.20;63.78;;;;;;;12.15;nan;99307.72;5067744;28;20131;-66
2024/01/22 08:54:05;;;;;;;150.07;64.43;;;;;;;12.27;nan;99300.88;5084359;28;20544;-66
2024/01/22 08:56:35;;;;;;;151.68;64.35;;;;;;;12.45;nan;99301.28;5059125;28;20040;-69
2024/01/22 08:59:04;;;;;;;152.95;66.07;;;;;;;12.47;nan;99295.78;5074991;28;20626;-70
2024/01/22 09:01:34;;;;;;;149.93;65.05;;;;;;;12.14;nan;99290.97;5079706;28;20151;-70
2024/01/22 09:04:03;;;;;;;155.88;65.63;;;;;;;12.44;nan;99285.53;5071805;28;20048;-70
2024/01/22 09:06:32;;;;;;;150.30;66.57;;;;;;;12.25;nan;99276.38;4715346;28;10000073;-68
2024/01/22 09:09:05;;;;;;;143.70;64.63;;;;;;;12.30;nan;99271.31;5061585;28;20684;-68
2024/01/22 09:11:34;;;;;;;150.88;64.57;;;;;;;12.35;nan;99284.81;5063842;28;20127;-69
2024/01/22 09:14:04;;;;;;;145.80;66.63;;;;;;;12.94;nan;99266.75;5063173;28;20144;-68
2024/01/22 09:16:39;;;;;;;149.30;66.32;;;;;;;12.86;nan;99268.72;5053120;28;20558;-68
2024/01/22 09:19:08;;;;;;;151.88;66.78;;;;;;;12.58;nan;99266.03;5061030;28;20845;-68
2024/01/22 09:21:37;;;;;;;144.68;62.55;;;;;;;12.57;nan;99262.56;5065133;28;20140;-68
2024/01/22 09:24:07;;;;;;;144.52;61.72;;;;;;;12.81;nan;99255.19;5063807;28;20052;-68
2024/01/22 09:26:36;;;;;;;148.93;65.88;;;;;;;12.87;nan;99249.13;5061256;28;20150;-68
2024/01/22 09:29:05;;;;;;;145.40;61.72;;;;;;;12.91;nan;99253.84;5052958;28;20071;-68
2024/01/22 09:31:35;;;;;;;143.57;63.65;;;;;;;12.91;nan;99248.53;5065929;28;20155;-68
2024/01/22 09:34:04;;;;;;;144.40;63.28;;;;;;;12.98;nan;99249.38;5056355;28;20552;-67
2024/01/22 09:36:35;;;;;;;149.48;65.00;;;;;;;13.19;nan;99253.84;5068936;28;20049;-70
2024/01/22 09:39:05;;;;;;;145.32;61.35;;;;;;;13.26;nan;99253.88;5067499;28;20174;-69
2024/01/22 09:41:36;;;;;;;152.55;63.47;;;;;;;13.06;nan;99246.56;5061629;28;20051;-70
2024/01/22 09:44:06;;;;;;;141.82;61.50;;;;;;;12.77;nan;99249.44;5067224;28;20575;-71
2024/01/22 09:46:36;;;;;;;149.27;64.32;;;;;;;13.08;nan;99251.69;5070373;28;20048;-70
2024/01/22 09:49:06;;;;;;;147.98;63.83;;;;;;;12.63;nan;99255.66;5066712;28;20057;-70
2024/01/22 09:51:35;;;;;;;154.90;63.65;;;;;;;12.95;nan;99257.75;5067499;28;20056;-70
2024/01/22 09:54:09;;;;;;;151.15;63.35;;;;;;;12.84;nan;99250.31;5069303;28;20520;-71
2024/01/22 09:56:39;;;;;;;139.98;62.40;;;;;;;13.05;nan;99263.53;5066471;28;20051;-69
2024/01/22 09:59:17;;;;;;;148.30;65.18;;;;;;;13.05;nan;99246.78;5062952;28;20044;-70
2024/01/22 10:01:48;;;;;;;135.50;60.33;;;;;;;12.84;nan;99250.31;5067926;28;20110;-70
2024/01/22 10:04:18;;;;;;;151.07;64.55;;;;;;;12.73;nan;99248.19;5067161;28;20510;-70
2024/01/22 10:06:48;;;;;;;149.60;61.53;;;;;;;12.85;nan;99245.81;5067897;28;20056;-70
2024/01/22 10:09:17;;;;;;;141.23;58.83;;;;;;;12.90;nan;99251.38;5066106;28;20143;-70
2024/01/22 10:11:47;;;;;;;149.27;62.25;;;;;;;12.78;nan;99247.63;5067628;28;20051;-70
2024/01/22 10:14:37;;;;;;;137.90;61.83;;;;;;;12.82;nan;99251.53;5067170;28;20071;-70
2024/01/22 10:17:20;;;;;;;144.00;58.90;;;;;;;12.75;nan;99258.59;5067415;28;20379;-70
2024/01/22 10:19:51;;;;;;;140.77;62.40;;;;;;;12.90;nan;99254.03;5064814;28;20116;-70
2024/01/22 10:22:24;;;;;;;135.98;59.20;;;;;;;12.84;nan;99252.97;5067063;28;20110;-70
2024/01/22 10:25:01;;;;;;;135.70;59.93;;;;;;;12.83;nan;99254.00;5055931;28;20041;-69
2024/01/22 10:27:31;;;;;;;139.27;57.63;;;;;;;12.75;nan;99255.94;5066717;28;20273;-70
2024/01/22 10:30:11;;;;;;;140.45;59.58;;;;;;;12.92;nan;99252.81;5052349;28;20209;-70
2024/01/22 10:32:41;;;;;;;136.07;60.75;;;;;;;12.81;nan;99255.19;5067145;28;20059;-70
2024/01/22 10:35:25;;;;;;;132.63;54.10;;;;;;;12.74;nan;99252.50;5067221;28;20059;-70
2024/01/22 10:38:10;;;;;;;129.50;56.42;;;;;;;12.74;nan;99256.97;5067328;28;20754;-70
2024/01/22 10:40:40;;;;;;;123.22;55.08;;;;;;;12.81;nan;99253.34;5060913;28;20044;-70
2024/01/22 10:43:26;;;;;;;97.95;41.70;;;;;;;12.79;nan;99265.22;5066286;28;20044;-70
2024/01/22 10:45:58;;;;;;;94.65;39.47;;;;;;;12.50;nan;99269.66;5065647;28;20106;-70
2024/01/22 10:48:28;;;;;;;88.28;39.05;;;;;;;12.48;nan;99270.88;5066772;28;20044;-70
2024/01/22 10:51:06;;;;;;;98.55;39.88;;;;;;;12.70;nan;99271.69;5066579;28;20140;-70
2024/01/22 10:53:39;;;;;;;88.22;40.05;;;;;;;12.79;nan;99278.50;5067438;28;20440;-70
2024/01/22 10:56:18;;;;;;;91.03;40.90;;;;;;;12.73;nan;99273.94;5066845;28;20064;-70
2024/01/22 10:58:49;;;;;;;93.18;39.83;;;;;;;12.75;nan;99272.72;5067033;28;20810;-70
2024/01/22 11:01:24;;;;;;;85.63;38.63;;;;;;;12.68;nan;99268.38;5066777;28;20056;-70
2024/01/22 11:03:56;;;;;;;89.60;40.13;;;;;;;12.50;nan;99256.38;5058502;28;20159;-70
2024/01/22 11:06:31;;;;;;;92.80;40.22;;;;;;;12.44;nan;99265.09;5063436;28;20080;-70
2024/01/22 11:09:04;;;;;;;86.30;40.25;;;;;;;12.42;nan;99264.47;5065677;28;20075;-69
2024/01/22 11:11:38;;;;;;;95.80;40.42;;;;;;;12.48;nan;99268.22;5066846;28;20048;-70
2024/01/22 11:14:08;;;;;;;93.60;41.10;;;;;;;12.43;nan;99275.94;5055308;28;20098;-69
2024/01/22 11:16:38;;;;;;;99.72;41.58;;;;;;;12.29;nan;99266.19;5082732;28;20040;-70
2024/01/22 11:19:07;;;;;;;97.85;42.45;;;;;;;12.26;nan;99275.34;5059329;28;20114;-70
2024/01/22 11:21:38;;;;;;;96.75;41.20;;;;;;;11.99;nan;99274.22;5060397;28;20059;-69
2024/01/22 11:24:13;;;;;;;103.93;42.83;;;;;;;12.06;nan;99276.97;5059830;28;20553;-68
2024/01/22 11:27:03;;;;;;;100.65;41.80;;;;;;;11.99;nan;99278.75;5070308;28;20072;-71
2024/01/22 11:29:34;;;;;;;98.47;42.40;;;;;;;11.86;nan;99279.41;5053660;28;20056;-71
2024/01/22 11:32:32;;;;;;;100.43;39.70;;;;;;;11.91;nan;99270.88;5073559;28;20052;-70
2024/01/22 11:35:02;;;;;;;93.18;40.47;;;;;;;11.84;nan;99262.03;5066570;28;20052;-72
2024/01/22 11:37:38;;;;;;;103.30;41.72;;;;;;;11.84;nan;99262.03;5070339;28;20056;-70
2024/01/22 11:40:11;;;;;;;105.22;42.85;;;;;;;11.76;nan;99252.34;5069017;28;20052;-67
2024/01/22 11:42:40;;;;;;;102.43;43.45;;;;;;;11.56;nan;99254.72;5065184;28;20120;-74
2024/01/22 11:45:14;;;;;;;103.03;43.92;;;;;;;11.48;nan;99257.47;5073294;28;20420;-72
2024/01/22 11:47:46;;;;;;;105.20;43.28;;;;;;;11.48;nan;99256.66;5067395;28;20467;-71